createdAt,value
2022-10-19T00:00:32.165Z,10.93
2022-10-19T00:02:58.680Z,10.94
2022-10-19T00:05:28.386Z,10.93
2022-10-19T00:07:55.580Z,10.84
2022-10-19T00:10:22.083Z,10.90
2022-10-19T00:15:15.512Z,10.88
2022-10-19T00:17:43.241Z,10.92
2022-10-19T00:20:10.413Z,10.87
2022-10-19T00:22:36.887Z,10.86
2022-10-19T00:25:03.809Z,10.82
2022-10-19T00:27:30.529Z,10.72
2022-10-19T00:29:57.027Z,10.68
2022-10-19T00:32:23.498Z,10.53
2022-10-19T00:34:50.088Z,10.59
2022-10-19T00:37:16.802Z,10.49
2022-10-19T00:39:43.343Z,10.38
2022-10-19T00:42:13.148Z,10.40
2022-10-19T00:44:39.511Z,10.38
2022-10-19T00:47:08.026Z,10.29
2022-10-19T00:49:42.807Z,10.25
2022-10-19T00:52:12.672Z,10.13
2022-10-19T00:54:41.468Z,10.08
2022-10-19T00:57:08.181Z,9.96
2022-10-19T00:59:35.074Z,9.87
2022-10-19T01:02:03.473Z,9.85
2022-10-19T01:04:30.908Z,9.82
2022-10-19T01:06:57.614Z,9.65
2022-10-19T01:09:24.103Z,9.52
2022-10-19T01:12:36.280Z,9.51
2022-10-19T01:15:27.713Z,9.49
2022-10-19T01:18:01.022Z,9.51
2022-10-19T01:20:46.301Z,9.41
2022-10-19T01:23:38.244Z,9.39
2022-10-19T01:26:32.679Z,9.27
2022-10-19T01:29:08.583Z,9.21
2022-10-19T01:31:48.503Z,9.11
2022-10-19T01:34:17.968Z,9.14
2022-10-19T01:36:55.776Z,9.09
2022-10-19T01:39:32.384Z,8.98
2022-10-19T01:42:36.432Z,8.98
2022-10-19T01:45:26.204Z,8.93
2022-10-19T01:47:59.878Z,8.86
2022-10-19T01:50:32.373Z,8.79
2022-10-19T01:52:59.411Z,8.72
2022-10-19T01:55:26.874Z,8.67
2022-10-19T01:58:08.352Z,8.70
2022-10-19T02:00:37.878Z,8.71
2022-10-19T02:03:05.458Z,8.66
2022-10-19T02:05:33.379Z,8.56
2022-10-19T02:08:03.207Z,8.60
2022-10-19T02:10:31.804Z,8.47
2022-10-19T02:12:58.400Z,8.25
2022-10-19T02:15:26.887Z,7.98
2022-10-19T02:17:57.366Z,8.08
2022-10-19T02:20:24.254Z,8.25
2022-10-19T02:22:50.933Z,8.25
2022-10-19T02:25:17.422Z,8.09
2022-10-19T02:27:44.220Z,8.19
2022-10-19T02:30:16.572Z,8.24
2022-10-19T02:32:44.107Z,8.28
2022-10-19T02:35:12.244Z,8.27
2022-10-19T02:37:40.445Z,8.22
2022-10-19T02:40:07.893Z,8.09
2022-10-19T02:42:42.072Z,7.99
2022-10-19T02:45:16.778Z,8.04
2022-10-19T02:47:48.699Z,8.04
2022-10-19T02:50:15.563Z,8.08
2022-10-19T02:52:42.062Z,8.03
2022-10-19T02:55:09.216Z,8.05
2022-10-19T02:57:36.264Z,7.87
2022-10-19T03:00:05.428Z,7.95
2022-10-19T03:02:31.998Z,7.88
2022-10-19T03:04:58.623Z,7.82
2022-10-19T03:07:25.303Z,7.78
2022-10-19T03:09:51.776Z,7.79
2022-10-19T03:12:18.291Z,7.64
2022-10-19T03:14:44.907Z,7.58
2022-10-19T03:17:11.742Z,7.70
2022-10-19T03:19:38.278Z,7.74
2022-10-19T03:22:05.749Z,7.76
2022-10-19T03:24:32.940Z,7.78
2022-10-19T03:26:59.451Z,7.42
2022-10-19T03:29:25.975Z,7.40
2022-10-19T03:31:52.584Z,7.60
2022-10-19T03:34:19.056Z,7.63
2022-10-19T03:36:45.528Z,7.61
2022-10-19T03:39:13.666Z,7.51
2022-10-19T03:41:40.324Z,7.62
2022-10-19T03:44:08.356Z,7.57
2022-10-19T03:46:35.485Z,7.62
2022-10-19T03:49:02.066Z,7.39
2022-10-19T03:51:29.909Z,7.26
2022-10-19T03:54:02.005Z,7.36
2022-10-19T03:56:30.236Z,7.46
2022-10-19T03:58:58.477Z,7.37
2022-10-19T04:01:30.424Z,7.40
2022-10-19T04:03:58.536Z,7.38
2022-10-19T04:06:27.601Z,7.30
2022-10-19T04:08:54.246Z,7.27
2022-10-19T04:11:23.872Z,7.18
2022-10-19T04:13:51.381Z,7.21
2022-10-19T04:16:18.421Z,7.04
2022-10-19T04:18:45.053Z,6.87
2022-10-19T04:21:24.649Z,6.99
2022-10-19T04:23:52.311Z,6.95
2022-10-19T04:26:19.091Z,6.63
2022-10-19T04:28:45.617Z,6.72
2022-10-19T04:31:12.746Z,7.08
2022-10-19T04:33:39.711Z,7.12
2022-10-19T04:36:08.448Z,6.97
2022-10-19T04:38:35.513Z,6.87
2022-10-19T04:41:06.130Z,6.78
2022-10-19T04:43:32.852Z,6.22
2022-10-19T04:46:10.076Z,6.19
2022-10-19T04:48:38.115Z,6.26
2022-10-19T04:51:05.211Z,6.58
2022-10-19T04:53:32.145Z,6.44
2022-10-19T04:55:58.653Z,6.63
2022-10-19T04:58:25.207Z,6.81
2022-10-19T05:00:51.962Z,6.69
2022-10-19T05:03:18.474Z,6.64
2022-10-19T05:05:44.968Z,6.74
2022-10-19T05:08:11.662Z,6.57
2022-10-19T05:10:38.335Z,6.43
2022-10-19T05:13:04.928Z,6.48
2022-10-19T05:15:31.444Z,6.48
2022-10-19T05:17:58.011Z,6.59
2022-10-19T05:20:24.843Z,6.44
2022-10-19T05:22:51.787Z,6.25
2022-10-19T05:25:18.427Z,6.20
2022-10-19T05:27:44.926Z,6.10
2022-10-19T05:30:11.514Z,6.09
2022-10-19T05:32:38.002Z,6.12
2022-10-19T05:35:04.700Z,6.05
2022-10-19T05:37:31.468Z,6.15
2022-10-19T05:39:58.145Z,6.22
2022-10-19T05:42:24.637Z,6.24
2022-10-19T05:44:51.105Z,6.17
2022-10-19T05:47:17.912Z,6.12
2022-10-19T05:49:44.500Z,6.14
2022-10-19T05:52:11.011Z,6.21
2022-10-19T05:54:37.608Z,6.19
2022-10-19T05:57:04.154Z,6.21
2022-10-19T05:59:30.995Z,6.20
2022-10-19T06:01:57.490Z,6.28
2022-10-19T06:04:24.009Z,6.28
2022-10-19T06:06:50.561Z,6.35
2022-10-19T06:09:17.259Z,6.32
2022-10-19T06:11:43.764Z,6.26
2022-10-19T06:14:15.701Z,6.10
2022-10-19T06:16:42.444Z,6.00
2022-10-19T06:19:08.962Z,6.06
2022-10-19T06:21:35.544Z,5.70
2022-10-19T06:24:04.550Z,5.96
2022-10-19T06:26:32.484Z,6.17
2022-10-19T06:29:00.596Z,6.30
2022-10-19T06:31:31.568Z,6.18
2022-10-19T06:33:58.210Z,5.96
2022-10-19T06:36:28.331Z,5.83
2022-10-19T06:38:56.461Z,6.02
2022-10-19T06:41:23.492Z,6.48
2022-10-19T06:43:51.107Z,6.95
2022-10-19T06:46:20.439Z,7.78
2022-10-19T06:48:54.916Z,8.53
2022-10-19T06:51:21.742Z,8.64
2022-10-19T06:53:52.961Z,9.19
2022-10-19T06:56:24.487Z,11.20
2022-10-19T06:58:51.003Z,12.28
2022-10-19T07:01:18.451Z,13.08
2022-10-19T07:03:45.092Z,14.49
2022-10-19T07:06:12.949Z,14.01
2022-10-19T07:08:41.042Z,11.64
2022-10-19T07:11:10.500Z,12.48
2022-10-19T07:13:37.407Z,11.73
2022-10-19T07:16:16.144Z,10.37
2022-10-19T07:18:46.671Z,9.95
2022-10-19T07:21:14.930Z,9.14
2022-10-19T07:23:43.195Z,9.95
2022-10-19T07:26:18.629Z,10.39
2022-10-19T07:28:46.734Z,10.52
2022-10-19T07:31:17.669Z,10.22
2022-10-19T07:33:44.688Z,10.77
2022-10-19T07:36:13.557Z,10.17
2022-10-19T07:38:40.499Z,10.35
2022-10-19T07:41:15.081Z,9.82
2022-10-19T07:43:42.348Z,10.02
2022-10-19T07:46:11.752Z,9.88
2022-10-19T07:48:38.203Z,9.57
2022-10-19T07:51:07.142Z,10.56
2022-10-19T07:53:34.472Z,10.45
2022-10-19T07:56:10.474Z,12.43
2022-10-19T07:58:37.487Z,11.58
2022-10-19T08:01:13.079Z,11.06
2022-10-19T08:06:26.320Z,10.61
2022-10-19T08:08:53.463Z,10.53
2022-10-19T08:11:23.233Z,10.08
2022-10-19T08:13:50.141Z,10.32
2022-10-19T08:16:36.586Z,9.82
2022-10-19T08:19:07.147Z,9.71
2022-10-19T08:21:34.489Z,10.03
2022-10-19T08:24:01.043Z,10.30
2022-10-19T08:26:32.303Z,10.16
2022-10-19T08:29:02.759Z,10.51
2022-10-19T08:31:29.426Z,9.87
2022-10-19T08:33:56.298Z,10.43
2022-10-19T08:36:23.239Z,10.54
2022-10-19T08:38:50.162Z,10.50
2022-10-19T08:41:22.534Z,10.48
2022-10-19T08:43:59.401Z,10.43
2022-10-19T08:46:43.967Z,10.34
2022-10-19T08:49:13.011Z,10.75
2022-10-19T08:51:40.822Z,10.45
2022-10-19T08:54:12.460Z,10.32
2022-10-19T08:56:51.403Z,10.68
2022-10-19T08:59:23.840Z,10.60
2022-10-19T09:01:57.021Z,10.81
2022-10-19T09:04:39.860Z,10.75
2022-10-19T09:07:18.243Z,10.65
2022-10-19T09:09:50.630Z,10.96
2022-10-19T09:12:19.974Z,10.81
2022-10-19T09:14:55.450Z,10.51
2022-10-19T09:17:21.920Z,10.69
2022-10-19T09:19:48.432Z,10.77
2022-10-19T09:22:26.252Z,10.88
2022-10-19T09:24:55.620Z,10.75
2022-10-19T09:27:29.363Z,10.75
2022-10-19T09:30:03.677Z,10.85
2022-10-19T09:32:36.201Z,10.81
2022-10-19T09:35:14.888Z,10.96
2022-10-19T09:37:45.802Z,10.90
2022-10-19T09:40:27.112Z,10.86
2022-10-19T09:43:03.278Z,11.21
2022-10-19T09:45:44.194Z,11.10
2022-10-19T09:48:36.095Z,11.27
2022-10-19T09:51:03.923Z,11.35
2022-10-19T09:53:30.465Z,11.31
2022-10-19T09:56:04.882Z,11.32
2022-10-19T09:58:33.115Z,11.25
2022-10-19T10:01:00.487Z,11.47
2022-10-19T10:03:40.251Z,11.64
2022-10-19T10:06:09.630Z,11.59
2022-10-19T10:08:39.034Z,11.57
2022-10-19T10:11:10.808Z,11.45
2022-10-19T10:13:39.564Z,11.43
2022-10-19T10:16:08.790Z,11.48
2022-10-19T10:18:52.978Z,11.62
2022-10-19T10:21:35.306Z,11.66
2022-10-19T10:24:10.819Z,11.73
2022-10-19T10:26:42.636Z,11.70
2022-10-19T10:29:32.705Z,11.62
2022-10-19T10:32:05.658Z,11.66
2022-10-19T10:34:56.927Z,11.70
2022-10-19T10:37:44.415Z,11.94
2022-10-19T10:40:24.681Z,12.09
2022-10-19T10:42:53.597Z,12.08
2022-10-19T10:45:26.250Z,11.85
2022-10-19T10:47:52.979Z,12.18
2022-10-19T10:50:22.600Z,12.06
2022-10-19T10:53:00.932Z,12.14
2022-10-19T10:55:28.171Z,11.96
2022-10-19T10:58:09.469Z,12.08
2022-10-19T11:00:40.117Z,12.11
2022-10-19T11:03:25.299Z,12.06
2022-10-19T11:05:56.401Z,12.18
2022-10-19T11:08:32.194Z,12.27
2022-10-19T11:11:15.513Z,12.34
2022-10-19T11:13:57.075Z,12.59
2022-10-19T11:16:38.629Z,12.40
2022-10-19T11:21:47.940Z,12.39
2022-10-19T11:24:39.083Z,12.58
2022-10-19T11:27:42.457Z,12.72
2022-10-19T11:30:10.811Z,12.68
2022-10-19T11:32:58.680Z,12.72
2022-10-19T11:36:04.473Z,12.70
2022-10-19T11:38:52.691Z,12.81
2022-10-19T11:41:39.230Z,12.81
2022-10-19T11:44:43.302Z,13.17
2022-10-19T11:47:34.800Z,12.90
2022-10-19T11:50:33.130Z,12.86
2022-10-19T11:53:10.570Z,13.09
2022-10-19T11:55:51.352Z,12.95
2022-10-19T11:58:52.616Z,13.43
2022-10-19T12:01:56.571Z,13.25
2022-10-19T12:04:50.564Z,13.20
2022-10-19T12:07:29.055Z,13.48
2022-10-19T12:10:22.242Z,13.66
2022-10-19T12:13:01.822Z,13.69
2022-10-19T12:15:32.316Z,13.60
2022-10-19T12:18:04.381Z,13.94
2022-10-19T12:20:45.091Z,14.50
2022-10-19T12:23:35.638Z,14.78
2022-10-19T12:26:04.951Z,14.85
2022-10-19T12:28:33.732Z,14.00
2022-10-19T12:31:01.652Z,14.33
2022-10-19T12:33:38.106Z,14.77
2022-10-19T12:36:13.004Z,14.82
2022-10-19T12:38:53.742Z,14.46
2022-10-19T12:41:52.435Z,14.37
2022-10-19T12:44:32.277Z,14.06
2022-10-19T12:47:21.262Z,14.32
2022-10-19T12:49:49.804Z,15.49
2022-10-19T12:52:38.157Z,14.61
2022-10-19T12:55:24.841Z,14.24
2022-10-19T12:58:06.732Z,14.49
2022-10-19T13:00:37.779Z,14.68
2022-10-19T13:03:07.404Z,14.82
2022-10-19T13:05:35.007Z,15.24
2022-10-19T13:08:04.043Z,15.22
2022-10-19T13:10:32.339Z,15.10
2022-10-19T13:12:58.976Z,14.93
2022-10-19T13:15:50.011Z,15.32
2022-10-19T13:18:54.758Z,14.93
2022-10-19T13:21:43.830Z,14.53
2022-10-19T13:24:25.166Z,14.69
2022-10-19T13:27:03.818Z,14.71
2022-10-19T13:29:40.267Z,14.41
2022-10-19T13:32:44.595Z,15.06
2022-10-19T13:35:37.262Z,15.15
2022-10-19T13:38:10.047Z,15.65
2022-10-19T13:40:56.706Z,15.99
2022-10-19T13:43:29.330Z,15.56
2022-10-19T13:46:06.488Z,15.76
2022-10-19T13:48:54.400Z,16.09
2022-10-19T13:51:32.639Z,14.76
2022-10-19T13:54:08.289Z,14.97
2022-10-19T13:56:58.967Z,15.63
2022-10-19T13:59:49.812Z,15.44
2022-10-19T14:02:35.685Z,15.00
2022-10-19T14:05:20.764Z,14.89
2022-10-19T14:08:01.035Z,14.29
2022-10-19T14:10:32.872Z,14.85
2022-10-19T14:13:00.292Z,14.88
2022-10-19T14:15:29.565Z,15.15
2022-10-19T14:17:57.041Z,14.55
2022-10-19T14:20:34.825Z,14.07
2022-10-19T14:23:20.592Z,14.28
2022-10-19T14:25:51.692Z,14.36
2022-10-19T14:28:18.149Z,14.23
2022-10-19T14:30:44.630Z,15.18
2022-10-19T14:33:14.476Z,15.07
2022-10-19T14:35:44.858Z,14.24
2022-10-19T14:38:18.610Z,13.95
2022-10-19T14:40:45.071Z,14.32
2022-10-19T14:43:25.780Z,14.26
2022-10-19T14:46:07.518Z,14.77
2022-10-19T14:48:45.450Z,14.18
2022-10-19T14:51:45.146Z,14.41
2022-10-19T14:54:20.439Z,13.88
2022-10-19T14:56:56.318Z,13.10
2022-10-19T14:59:30.971Z,12.83
2022-10-19T15:01:59.939Z,12.71
2022-10-19T15:04:32.912Z,12.29
2022-10-19T15:07:01.400Z,11.92
2022-10-19T15:09:37.295Z,11.79
2022-10-19T15:12:18.262Z,11.78
2022-10-19T15:14:45.630Z,11.64
2022-10-19T15:17:21.279Z,11.56
2022-10-19T15:19:47.746Z,11.42
2022-10-19T15:22:14.137Z,11.36
2022-10-19T15:24:55.481Z,11.31
2022-10-19T15:27:28.487Z,11.12
2022-10-19T15:29:56.895Z,11.12
2022-10-19T15:32:25.538Z,10.95
2022-10-19T15:34:52.208Z,10.83
2022-10-19T15:37:22.425Z,10.68
2022-10-19T15:39:50.353Z,10.62
2022-10-19T15:42:52.333Z,10.71
2022-10-19T15:45:32.795Z,10.61
2022-10-19T15:48:22.379Z,10.40
2022-10-19T15:50:51.802Z,10.12
2022-10-19T15:53:19.743Z,10.03
2022-10-19T15:55:46.682Z,9.98
2022-10-19T15:58:14.215Z,9.83
2022-10-19T16:00:41.184Z,9.58
2022-10-19T16:03:07.673Z,9.47
2022-10-19T16:05:35.868Z,9.40
2022-10-19T16:08:02.325Z,9.25
2022-10-19T16:10:28.797Z,9.34
2022-10-19T16:12:55.313Z,9.22
2022-10-19T16:15:22.899Z,9.11
2022-10-19T16:17:54.623Z,8.94
2022-10-19T16:20:21.466Z,8.76
2022-10-19T16:22:48.583Z,8.75
2022-10-19T16:25:15.488Z,8.89
2022-10-19T16:27:41.965Z,8.84
2022-10-19T16:30:08.908Z,9.03
2022-10-19T16:32:35.477Z,9.24
2022-10-19T16:35:02.062Z,9.32
2022-10-19T16:37:28.576Z,9.41
2022-10-19T16:39:55.031Z,9.54
2022-10-19T16:42:22.347Z,9.31
2022-10-19T16:44:50.209Z,9.37
2022-10-19T16:47:19.619Z,9.25
2022-10-19T16:49:48.871Z,9.31
2022-10-19T16:52:15.342Z,8.73
2022-10-19T16:54:41.835Z,8.70
2022-10-19T16:57:11.637Z,8.21
2022-10-19T16:59:38.441Z,7.86
2022-10-19T17:02:05.073Z,7.63
2022-10-19T17:04:31.527Z,7.61
2022-10-19T17:06:58.165Z,7.59
2022-10-19T17:12:11.834Z,7.78
2022-10-19T17:14:39.625Z,7.57
2022-10-19T17:17:06.344Z,7.73
2022-10-19T17:19:32.863Z,7.32
2022-10-19T17:21:59.354Z,7.54
2022-10-19T17:24:26.144Z,7.28
2022-10-19T17:26:54.150Z,7.20
2022-10-19T17:29:28.908Z,7.55
2022-10-19T17:31:55.479Z,7.49
2022-10-19T17:34:22.087Z,7.51
2022-10-19T17:36:53.207Z,7.43
2022-10-19T17:39:27.241Z,7.38
2022-10-19T17:41:57.593Z,7.22
2022-10-19T17:44:24.783Z,7.20
2022-10-19T17:46:51.582Z,7.28
2022-10-19T17:49:18.744Z,7.61
2022-10-19T17:51:45.185Z,7.75
2022-10-19T17:54:13.255Z,7.49
2022-10-19T17:56:40.921Z,7.44
2022-10-19T17:59:08.824Z,7.37
2022-10-19T18:01:37.309Z,6.92
2022-10-19T18:04:05.960Z,6.63
2022-10-19T18:06:35.840Z,6.42
2022-10-19T18:09:24.847Z,6.47
2022-10-19T18:12:07.126Z,6.16
2022-10-19T18:14:42.090Z,6.11
2022-10-19T18:17:10.379Z,6.56
2022-10-19T18:19:45.851Z,6.80
2022-10-19T18:22:13.892Z,5.62
2022-10-19T18:24:41.410Z,5.25
2022-10-19T18:27:08.851Z,5.09
2022-10-19T18:29:35.934Z,5.01
2022-10-19T18:32:02.735Z,5.00
2022-10-19T18:34:29.355Z,5.39
2022-10-19T18:36:55.989Z,5.44
2022-10-19T18:39:23.084Z,5.71
2022-10-19T18:41:52.207Z,5.06
2022-10-19T18:44:23.539Z,5.29
2022-10-19T18:46:53.339Z,5.70
2022-10-19T18:49:19.940Z,5.87
2022-10-19T18:51:50.642Z,5.90
2022-10-19T18:54:21.041Z,5.87
2022-10-19T18:56:47.490Z,5.65
2022-10-19T18:59:15.390Z,5.16
2022-10-19T19:01:42.260Z,5.39
2022-10-19T19:04:09.729Z,5.38
2022-10-19T19:06:37.288Z,5.17
2022-10-19T19:09:09.645Z,5.21
2022-10-19T19:11:38.221Z,5.36
2022-10-19T19:14:15.090Z,4.81
2022-10-19T19:16:45.010Z,5.30
2022-10-19T19:19:13.182Z,5.01
2022-10-19T19:21:43.483Z,4.81
2022-10-19T19:24:12.483Z,5.09
2022-10-19T19:26:41.437Z,4.86
2022-10-19T19:29:09.141Z,4.88
2022-10-19T19:31:36.040Z,5.10
2022-10-19T19:34:03.339Z,5.16
2022-10-19T19:36:30.019Z,5.36
2022-10-19T19:38:56.772Z,5.22
2022-10-19T19:41:24.358Z,5.08
2022-10-19T19:43:50.979Z,5.08
2022-10-19T19:46:18.942Z,4.63
2022-10-19T19:48:47.360Z,4.45
2022-10-19T19:51:19.078Z,4.52
2022-10-19T19:53:46.733Z,4.12
2022-10-19T19:56:14.784Z,4.18
2022-10-19T19:58:42.567Z,4.18
2022-10-19T20:01:12.468Z,4.29
2022-10-19T20:03:40.059Z,4.37
2022-10-19T20:06:06.918Z,4.56
2022-10-19T20:08:34.113Z,4.59
2022-10-19T20:11:03.409Z,4.63
2022-10-19T20:13:30.426Z,4.56
2022-10-19T20:15:57.066Z,4.16
2022-10-19T20:18:23.565Z,4.13
2022-10-19T20:20:50.097Z,4.35
2022-10-19T20:23:16.595Z,4.72
2022-10-19T20:25:43.119Z,4.41
2022-10-19T20:28:09.720Z,4.66
2022-10-19T20:30:36.211Z,4.71
2022-10-19T20:33:02.715Z,4.95
2022-10-19T20:35:29.191Z,5.05
2022-10-19T20:37:57.688Z,4.98
2022-10-19T20:40:24.239Z,4.79
2022-10-19T20:42:50.811Z,5.30
2022-10-19T20:45:17.512Z,5.44
2022-10-19T20:47:44.117Z,5.46
2022-10-19T20:50:10.675Z,5.36
2022-10-19T20:52:38.464Z,4.77
2022-10-19T20:55:06.326Z,4.93
2022-10-19T20:57:32.820Z,4.78
2022-10-19T20:59:59.350Z,4.75
2022-10-19T21:02:26.354Z,4.70
2022-10-19T21:04:53.765Z,5.10
2022-10-19T21:07:20.618Z,4.83
2022-10-19T21:09:47.251Z,5.14
2022-10-19T21:12:14.038Z,5.12
2022-10-19T21:14:40.624Z,4.78
2022-10-19T21:17:07.068Z,4.26
2022-10-19T21:19:34.282Z,4.42
2022-10-19T21:22:03.578Z,4.33
2022-10-19T21:24:34.761Z,4.20
2022-10-19T21:27:03.858Z,4.31
2022-10-19T21:29:30.668Z,4.81
2022-10-19T21:31:57.258Z,4.42
2022-10-19T21:34:26.797Z,4.20
2022-10-19T21:36:53.990Z,4.21
2022-10-19T21:39:20.876Z,4.23
2022-10-19T21:41:47.856Z,4.30
2022-10-19T21:44:15.265Z,4.48
2022-10-19T21:46:43.569Z,4.26
2022-10-19T21:49:13.500Z,4.42
2022-10-19T21:51:48.708Z,4.30
2022-10-19T21:54:18.355Z,4.21
2022-10-19T21:56:45.611Z,4.14
2022-10-19T21:59:12.798Z,4.53
2022-10-19T22:01:41.780Z,4.57
2022-10-19T22:04:14.560Z,4.86
2022-10-19T22:06:41.689Z,4.99
2022-10-19T22:09:10.376Z,4.66
2022-10-19T22:11:37.093Z,4.84
2022-10-19T22:14:04.540Z,4.90
2022-10-19T22:16:32.101Z,4.83
2022-10-19T22:19:02.403Z,4.71
2022-10-19T22:21:30.855Z,4.48
2022-10-19T22:24:09.120Z,4.50
2022-10-19T22:26:41.817Z,4.18
2022-10-19T22:29:08.649Z,4.13
2022-10-19T22:31:38.491Z,4.30
2022-10-19T22:34:07.962Z,4.65
2022-10-19T22:36:35.766Z,4.47
2022-10-19T22:39:04.118Z,4.58
2022-10-19T22:41:30.769Z,4.19
2022-10-19T22:43:57.255Z,4.13
2022-10-19T22:46:23.849Z,3.99
2022-10-19T22:48:50.315Z,3.70
2022-10-19T22:51:16.904Z,3.20
2022-10-19T22:53:43.452Z,3.37
2022-10-19T22:56:14.416Z,3.41
2022-10-19T22:58:41.222Z,3.40
2022-10-19T23:01:10.588Z,3.41
2022-10-19T23:03:39.275Z,3.62
2022-10-19T23:06:10.575Z,3.91
2022-10-19T23:08:37.129Z,3.61
2022-10-19T23:11:03.730Z,3.31
2022-10-19T23:13:30.248Z,3.44
2022-10-19T23:15:56.820Z,3.30
2022-10-19T23:18:23.388Z,3.35
2022-10-19T23:20:57.440Z,3.31
2022-10-19T23:23:24.227Z,3.45
2022-10-19T23:26:18.160Z,3.48
2022-10-19T23:28:46.291Z,3.41
2022-10-19T23:31:15.649Z,3.45
2022-10-19T23:33:42.983Z,3.61
2022-10-19T23:36:14.359Z,3.78
2022-10-19T23:38:42.302Z,3.66
2022-10-19T23:41:08.928Z,3.40
2022-10-19T23:48:44.205Z,3.23
2022-10-19T23:51:13.659Z,3.33
2022-10-19T23:53:41.733Z,3.40
2022-10-19T23:56:20.018Z,3.37
2022-10-19T23:58:46.936Z,3.34
